ノヴォシビルスク の空港の天気 - METARとTAF

トルマチェヴォ空港(ノヴォシビルスク) ( UNNT / OVB ) - ロシア ノヴォシビルスク
飛行場実況気象(Metar)
観測時間01/20 23:30 +06 (01/20 17:30 UTC)
風向・風速南 5m/s
視程3600m
天気現象弱い雪
全天を覆う雲 雲底高度 1310m
気温-8℃
湿度86%
気圧1020hPa
METARUNNT 201730Z 18005MPS 3600 -SN OVC043 M08/M10 Q1020 R25/390145 R16/490240 NOSIG RMK QFE755/1007
過去の天気等 Google飛行場航空写真 Wunderground天気予報

過去48時間のMETAR

飛行場予報(TAF)
発表時間: 1/20 23:00 +06 (1/20 17:00 UTC)
予報対象時間: 21日0時 +06 ~ 22日0時 +06
風向・風速南 6m/s 瞬間風速 13m/s
視程4,000m
天気現象弱いしゅう雪 低い地吹雪
全天の8割程度の積乱雲 雲底高度 370m
21日0時 +06 ~ 21日18時 +06 に一時的に
風向・風速南西 8m/s 瞬間風速 15m/s
視程600m
天気現象強いしゅう雪 高い地吹雪
全天の4割程度の雲 雲底高度 30m
全天の8割程度の雲 雲底高度 150m
全天を覆う積乱雲 雲底高度 300m
21日18時 +06 ~ 21日24時 +06 に一時的に
風向・風速南西 8m/s 瞬間風速 15m/s
視程1,500m
天気現象しゅう雪 高い地吹雪
全天の8割程度の雲 雲底高度 150m
全天の8割程度の積乱雲 雲底高度 300m
TAF UNNT 201700Z 2018/2118 19006G13MPS 4000 -SHSN DRSN BKN012CB
TEMPO 2018/2112 23008G15MPS 0600 +SHSN BLSN SCT001 BKN005 OVC010CB
TEMPO 2112/2118 23008G15MPS 1500 SHSN BLSN BKN005 BKN010CB